sensor_id;sensor_type;location;lat;lon;timestamp;pressure;altitude;pressure_sealevel;temperature;humidity
56330;BME280;42236;48.058;10.632;2022-12-11T00:01:19;93855.56;;;-2.59;96.00
56330;BME280;42236;48.058;10.632;2022-12-11T00:04:05;93855.28;;;-2.58;96.40
56330;BME280;42236;48.058;10.632;2022-12-11T00:06:51;93846.53;;;-2.53;96.34
56330;BME280;42236;48.058;10.632;2022-12-11T00:09:37;93848.88;;;-2.51;96.25
56330;BME280;42236;48.058;10.632;2022-12-11T00:12:23;93861.56;;;-2.48;96.43
56330;BME280;42236;48.058;10.632;2022-12-11T00:15:09;93849.88;;;-2.42;96.29
56330;BME280;42236;48.058;10.632;2022-12-11T00:17:54;93850.13;;;-2.39;96.41
56330;BME280;42236;48.058;10.632;2022-12-11T00:20:40;93852.47;;;-2.37;95.80
56330;BME280;42236;48.058;10.632;2022-12-11T00:23:27;93844.28;;;-2.36;96.06
56330;BME280;42236;48.058;10.632;2022-12-11T00:26:13;93849.56;;;-2.36;95.72
56330;BME280;42236;48.058;10.632;2022-12-11T00:28:59;93846.66;;;-2.34;95.93
56330;BME280;42236;48.058;10.632;2022-12-11T00:31:45;93848.97;;;-2.32;95.97
56330;BME280;42236;48.058;10.632;2022-12-11T00:34:31;93841.34;;;-2.34;95.43
56330;BME280;42236;48.058;10.632;2022-12-11T00:37:16;93839.00;;;-2.36;96.01
56330;BME280;42236;48.058;10.632;2022-12-11T00:40:02;93839.00;;;-2.36;95.64
56330;BME280;42236;48.058;10.632;2022-12-11T00:42:48;93845.84;;;-2.34;96.15
56330;BME280;42236;48.058;10.632;2022-12-11T00:45:39;93844.50;;;-2.32;96.22
56330;BME280;42236;48.058;10.632;2022-12-11T00:48:26;93837.06;;;-2.30;95.74
56330;BME280;42236;48.058;10.632;2022-12-11T00:51:11;93845.28;;;-2.31;95.66
56330;BME280;42236;48.058;10.632;2022-12-11T00:53:57;93853.47;;;-2.33;95.81
56330;BME280;42236;48.058;10.632;2022-12-11T00:56:43;93852.91;;;-2.30;95.82
56330;BME280;42236;48.058;10.632;2022-12-11T00:59:28;93851.94;;;-2.34;95.28
56330;BME280;42236;48.058;10.632;2022-12-11T01:02:14;93852.00;;;-2.44;95.97
56330;BME280;42236;48.058;10.632;2022-12-11T01:04:59;93854.69;;;-2.49;95.98
56330;BME280;42236;48.058;10.632;2022-12-11T01:07:45;93863.22;;;-2.58;96.16
56330;BME280;42236;48.058;10.632;2022-12-11T01:10:31;93855.38;;;-2.68;96.34
56330;BME280;42236;48.058;10.632;2022-12-11T01:13:17;93856.75;;;-2.75;96.37
56330;BME280;42236;48.058;10.632;2022-12-11T01:16:14;93857.88;;;-2.82;96.54
56330;BME280;42236;48.058;10.632;2022-12-11T01:18:59;93863.41;;;-2.83;96.62
56330;BME280;42236;48.058;10.632;2022-12-11T01:21:45;93868.16;;;-2.85;96.63
56330;BME280;42236;48.058;10.632;2022-12-11T01:24:32;93877.72;;;-2.89;96.64
56330;BME280;42236;48.058;10.632;2022-12-11T01:27:17;93875.63;;;-2.97;96.55
56330;BME280;42236;48.058;10.632;2022-12-11T01:30:05;93870.69;;;-3.04;96.52
56330;BME280;42236;48.058;10.632;2022-12-11T01:32:52;93874.91;;;-3.03;96.88
56330;BME280;42236;48.058;10.632;2022-12-11T01:35:38;93873.56;;;-3.01;96.71
56330;BME280;42236;48.058;10.632;2022-12-11T01:38:24;93880.16;;;-3.03;96.62
56330;BME280;42236;48.058;10.632;2022-12-11T01:41:10;93882.31;;;-3.10;96.57
56330;BME280;42236;48.058;10.632;2022-12-11T01:47:00;93879.94;;;-3.12;96.95
56330;BME280;42236;48.058;10.632;2022-12-11T01:49:46;93882.84;;;-3.08;96.96
56330;BME280;42236;48.058;10.632;2022-12-11T01:52:32;93887.84;;;-3.07;96.93
56330;BME280;42236;48.058;10.632;2022-12-11T01:55:18;93877.31;;;-3.07;96.80
56330;BME280;42236;48.058;10.632;2022-12-11T01:58:05;93879.66;;;-3.05;96.81
56330;BME280;42236;48.058;10.632;2022-12-11T02:00:52;93877.31;;;-3.07;96.82
56330;BME280;42236;48.058;10.632;2022-12-11T02:03:38;93870.44;;;-3.08;96.57
56330;BME280;42236;48.058;10.632;2022-12-11T02:06:44;93874.66;;;-3.07;96.63
56330;BME280;42236;48.058;10.632;2022-12-11T02:09:33;93878.34;;;-3.08;96.58
56330;BME280;42236;48.058;10.632;2022-12-11T02:12:32;93870.97;;;-3.06;96.44
56330;BME280;42236;48.058;10.632;2022-12-11T02:15:35;93874.13;;;-3.04;96.38
56330;BME280;42236;48.058;10.632;2022-12-11T02:18:36;93874.63;;;-3.02;96.63
56330;BME280;42236;48.058;10.632;2022-12-11T02:21:49;93874.63;;;-3.02;96.21
56330;BME280;42236;48.058;10.632;2022-12-11T02:27:49;93867.53;;;-3.06;96.34
56330;BME280;42236;48.058;10.632;2022-12-11T02:30:41;93873.06;;;-3.08;96.20
56330;BME280;42236;48.058;10.632;2022-12-11T02:33:43;93874.16;;;-3.09;96.31
56330;BME280;42236;48.058;10.632;2022-12-11T02:36:34;93867.28;;;-3.10;96.16
56330;BME280;42236;48.058;10.632;2022-12-11T02:39:24;93872.56;;;-3.10;96.06
56330;BME280;42236;48.058;10.632;2022-12-11T02:42:12;93871.03;;;-3.16;95.86
56330;BME280;42236;48.058;10.632;2022-12-11T02:45:00;93865.78;;;-3.21;95.96
56330;BME280;42236;48.058;10.632;2022-12-11T02:47:47;93863.97;;;-3.26;95.69
56330;BME280;42236;48.058;10.632;2022-12-11T02:50:36;93876.91;;;-3.34;95.51
56330;BME280;42236;48.058;10.632;2022-12-11T02:53:28;93874.09;;;-3.43;95.68
56330;BME280;42236;48.058;10.632;2022-12-11T02:56:29;93873.59;;;-3.50;95.70
56330;BME280;42236;48.058;10.632;2022-12-11T02:59:23;93874.91;;;-3.58;95.78
56330;BME280;42236;48.058;10.632;2022-12-11T03:02:12;93875.50;;;-3.66;95.98
56330;BME280;42236;48.058;10.632;2022-12-11T03:04:59;93874.44;;;-3.70;95.69
56330;BME280;42236;48.058;10.632;2022-12-11T03:07:45;93879.75;;;-3.75;95.74
56330;BME280;42236;48.058;10.632;2022-12-11T03:10:31;93882.91;;;-3.78;95.58
56330;BME280;42236;48.058;10.632;2022-12-11T03:13:19;93885.03;;;-3.80;95.99
56330;BME280;42236;48.058;10.632;2022-12-11T03:22:23;93874.97;;;-3.68;95.15
56330;BME280;42236;48.058;10.632;2022-12-11T03:25:16;93882.88;;;-3.68;95.41
56330;BME280;42236;48.058;10.632;2022-12-11T03:28:13;93868.13;;;-3.64;94.90
56330;BME280;42236;48.058;10.632;2022-12-11T03:31:04;93876.00;;;-3.59;94.96
56330;BME280;42236;48.058;10.632;2022-12-11T03:33:53;93880.72;;;-3.56;94.55
56330;BME280;42236;48.058;10.632;2022-12-11T03:36:42;93880.19;;;-3.58;93.99
56330;BME280;42236;48.058;10.632;2022-12-11T03:39:31;93876.50;;;-3.57;94.24
56330;BME280;42236;48.058;10.632;2022-12-11T03:42:19;93888.38;;;-3.59;93.85
56330;BME280;42236;48.058;10.632;2022-12-11T03:45:06;93889.97;;;-3.63;93.66
56330;BME280;42236;48.058;10.632;2022-12-11T03:47:55;93903.97;;;-3.68;92.76
56330;BME280;42236;48.058;10.632;2022-12-11T03:50:44;93899.78;;;-3.74;92.72
56330;BME280;42236;48.058;10.632;2022-12-11T03:53:33;93891.34;;;-3.76;92.99
56330;BME280;42236;48.058;10.632;2022-12-11T03:56:21;93900.28;;;-3.77;93.12
56330;BME280;42236;48.058;10.632;2022-12-11T03:59:08;93897.16;;;-3.74;93.75
56330;BME280;42236;48.058;10.632;2022-12-11T04:01:54;93893.44;;;-3.73;94.10
56330;BME280;42236;48.058;10.632;2022-12-11T04:04:40;93895.00;;;-3.67;93.90
56330;BME280;42236;48.058;10.632;2022-12-11T04:07:26;93888.66;;;-3.61;94.68
56330;BME280;42236;48.058;10.632;2022-12-11T04:10:12;93882.81;;;-3.58;94.61
56330;BME280;42236;48.058;10.632;2022-12-11T04:12:58;93885.25;;;-3.67;94.72
56330;BME280;42236;48.058;10.632;2022-12-11T04:15:44;93894.75;;;-3.71;94.72
56330;BME280;42236;48.058;10.632;2022-12-11T04:18:29;93889.75;;;-3.77;94.67
56330;BME280;42236;48.058;10.632;2022-12-11T04:21:33;93897.13;;;-3.79;94.83
56330;BME280;42236;48.058;10.632;2022-12-11T04:24:38;93901.91;;;-3.81;95.14
56330;BME280;42236;48.058;10.632;2022-12-11T04:27:24;93905.84;;;-3.79;95.59
56330;BME280;42236;48.058;10.632;2022-12-11T04:30:28;93907.16;;;-3.76;95.67
56330;BME280;42236;48.058;10.632;2022-12-11T04:33:14;93908.72;;;-3.75;95.45
56330;BME280;42236;48.058;10.632;2022-12-11T04:36:00;93913.44;;;-3.72;95.52
56330;BME280;42236;48.058;10.632;2022-12-11T04:38:45;93906.84;;;-3.70;95.73
56330;BME280;42236;48.058;10.632;2022-12-11T04:41:31;93912.94;;;-3.69;95.46
56330;BME280;42236;48.058;10.632;2022-12-11T04:44:17;93906.34;;;-3.67;95.59
56330;BME280;42236;48.058;10.632;2022-12-11T04:47:02;93906.06;;;-3.70;95.48
56330;BME280;42236;48.058;10.632;2022-12-11T04:49:48;93901.88;;;-3.71;95.40
56330;BME280;42236;48.058;10.632;2022-12-11T04:52:34;93896.06;;;-3.68;95.66
56330;BME280;42236;48.058;10.632;2022-12-11T04:55:20;93902.41;;;-3.69;95.72
56330;BME280;42236;48.058;10.632;2022-12-11T04:58:06;93893.41;;;-3.68;95.26
56330;BME280;42236;48.058;10.632;2022-12-11T05:00:52;93900.28;;;-3.67;95.23
56330;BME280;42236;48.058;10.632;2022-12-11T05:03:38;93886.56;;;-3.64;95.29
56330;BME280;42236;48.058;10.632;2022-12-11T05:06:24;93884.16;;;-3.60;95.39
56330;BME280;42236;48.058;10.632;2022-12-11T05:09:11;93880.72;;;-3.56;95.08
56330;BME280;42236;48.058;10.632;2022-12-11T05:11:57;93894.69;;;-3.55;94.94
56330;BME280;42236;48.058;10.632;2022-12-11T05:14:42;93895.47;;;-3.50;95.04
56330;BME280;42236;48.058;10.632;2022-12-11T05:17:29;93892.81;;;-3.45;94.97
56330;BME280;42236;48.058;10.632;2022-12-11T05:20:14;93890.66;;;-3.37;94.56
56330;BME280;42236;48.058;10.632;2022-12-11T05:23:00;93888.00;;;-3.32;94.34
56330;BME280;42236;48.058;10.632;2022-12-11T05:25:53;93886.91;;;-3.26;94.36
56330;BME280;42236;48.058;10.632;2022-12-11T05:28:39;93887.66;;;-3.20;93.74
56330;BME280;42236;48.058;10.632;2022-12-11T05:31:26;93891.06;;;-3.15;93.61
56330;BME280;42236;48.058;10.632;2022-12-11T05:34:12;93882.34;;;-3.15;93.90
56330;BME280;42236;48.058;10.632;2022-12-11T05:37:00;93880.75;;;-3.11;93.47
56330;BME280;42236;48.058;10.632;2022-12-11T05:39:46;93881.53;;;-3.11;93.55
56330;BME280;42236;48.058;10.632;2022-12-11T05:42:32;93868.09;;;-3.09;93.35
56330;BME280;42236;48.058;10.632;2022-12-11T05:45:18;93870.19;;;-3.06;93.90
56330;BME280;42236;48.058;10.632;2022-12-11T05:48:04;93874.13;;;-3.04;92.86
56330;BME280;42236;48.058;10.632;2022-12-11T05:51:00;93875.41;;;-3.01;92.96
56330;BME280;42236;48.058;10.632;2022-12-11T05:53:48;93861.44;;;-3.02;93.16
56330;BME280;42236;48.058;10.632;2022-12-11T05:56:34;93875.16;;;-2.99;92.79
56330;BME280;42236;48.058;10.632;2022-12-11T05:59:20;93863.78;;;-3.00;92.81
56330;BME280;42236;48.058;10.632;2022-12-11T06:02:05;93861.41;;;-2.96;92.88
56330;BME280;42236;48.058;10.632;2022-12-11T06:04:51;93859.28;;;-2.94;93.01
56330;BME280;42236;48.058;10.632;2022-12-11T06:07:37;93866.91;;;-2.93;92.96
56330;BME280;42236;48.058;10.632;2022-12-11T06:10:22;93864.00;;;-2.91;92.57
56330;BME280;42236;48.058;10.632;2022-12-11T06:13:08;93864.78;;;-2.91;92.89
56330;BME280;42236;48.058;10.632;2022-12-11T06:15:54;93861.09;;;-2.90;92.15
56330;BME280;42236;48.058;10.632;2022-12-11T06:18:42;93861.09;;;-2.90;92.49
56330;BME280;42236;48.058;10.632;2022-12-11T06:21:29;93863.22;;;-2.92;92.56
56330;BME280;42236;48.058;10.632;2022-12-11T06:24:15;93856.34;;;-2.93;92.61
56330;BME280;42236;48.058;10.632;2022-12-11T06:27:01;93851.13;;;-2.98;92.30
56330;BME280;42236;48.058;10.632;2022-12-11T06:29:47;93853.28;;;-3.05;92.51
56330;BME280;42236;48.058;10.632;2022-12-11T06:32:32;93857.28;;;-3.13;92.09
56330;BME280;42236;48.058;10.632;2022-12-11T06:35:18;93840.72;;;-3.18;91.82
56330;BME280;42236;48.058;10.632;2022-12-11T06:38:03;93845.78;;;-3.27;91.67
56330;BME280;42236;48.058;10.632;2022-12-11T06:40:56;93851.09;;;-3.37;91.39
56330;BME280;42236;48.058;10.632;2022-12-11T06:43:42;93860.63;;;-3.47;91.52
56330;BME280;42236;48.058;10.632;2022-12-11T06:46:28;93857.50;;;-3.54;91.19
56330;BME280;42236;48.058;10.632;2022-12-11T06:49:13;93854.16;;;-3.65;91.29
56330;BME280;42236;48.058;10.632;2022-12-11T06:51:59;93858.13;;;-3.77;91.85
56330;BME280;42236;48.058;10.632;2022-12-11T06:54:44;93849.25;;;-3.87;91.45
56330;BME280;42236;48.058;10.632;2022-12-11T06:57:30;93851.88;;;-3.97;91.54
56330;BME280;42236;48.058;10.632;2022-12-11T07:00:16;93857.19;;;-4.02;91.86
56330;BME280;42236;48.058;10.632;2022-12-11T07:03:02;93854.00;;;-4.04;92.00
56330;BME280;42236;48.058;10.632;2022-12-11T07:05:49;93854.00;;;-4.04;91.75
56330;BME280;42236;48.058;10.632;2022-12-11T07:08:35;93854.31;;;-4.05;91.88
56330;BME280;42236;48.058;10.632;2022-12-11T07:11:21;93860.38;;;-4.10;91.76
56330;BME280;42236;48.058;10.632;2022-12-11T07:14:07;93855.09;;;-4.10;91.28
56330;BME280;42236;48.058;10.632;2022-12-11T07:16:53;93849.31;;;-4.12;90.92
56330;BME280;42236;48.058;10.632;2022-12-11T07:19:39;93851.97;;;-4.22;90.00
56330;BME280;42236;48.058;10.632;2022-12-11T07:22:25;93851.47;;;-4.35;89.41
56330;BME280;42236;48.058;10.632;2022-12-11T07:25:10;93857.28;;;-4.43;89.82
56330;BME280;42236;48.058;10.632;2022-12-11T07:27:56;93859.13;;;-4.48;90.36
56330;BME280;42236;48.058;10.632;2022-12-11T07:30:42;93855.97;;;-4.51;90.47
56330;BME280;42236;48.058;10.632;2022-12-11T07:33:27;93857.03;;;-4.52;90.68
56330;BME280;42236;48.058;10.632;2022-12-11T07:36:14;93861.00;;;-4.54;90.67
56330;BME280;42236;48.058;10.632;2022-12-11T07:39:00;93862.56;;;-4.53;90.44
56330;BME280;42236;48.058;10.632;2022-12-11T07:41:46;93865.44;;;-4.55;90.27
56330;BME280;42236;48.058;10.632;2022-12-11T07:44:32;93864.66;;;-4.60;89.97
56330;BME280;42236;48.058;10.632;2022-12-11T07:47:17;93859.94;;;-4.58;90.20
56330;BME280;42236;48.058;10.632;2022-12-11T07:50:03;93858.59;;;-4.56;90.55
56330;BME280;42236;48.058;10.632;2022-12-11T07:52:49;93857.28;;;-4.53;90.43
56330;BME280;42236;48.058;10.632;2022-12-11T07:55:35;93864.66;;;-4.50;90.17
56330;BME280;42236;48.058;10.632;2022-12-11T07:58:20;93862.53;;;-4.48;90.21
56330;BME280;42236;48.058;10.632;2022-12-11T08:01:12;93859.91;;;-4.48;90.07
56330;BME280;42236;48.058;10.632;2022-12-11T08:03:58;93863.59;;;-4.44;90.34
56330;BME280;42236;48.058;10.632;2022-12-11T08:06:44;93863.59;;;-4.44;89.16
56330;BME280;42236;48.058;10.632;2022-12-11T08:09:30;93866.22;;;-4.44;89.25
56330;BME280;42236;48.058;10.632;2022-12-11T08:12:15;93871.75;;;-4.40;90.02
56330;BME280;42236;48.058;10.632;2022-12-11T08:15:01;93872.00;;;-4.37;89.83
56330;BME280;42236;48.058;10.632;2022-12-11T08:17:47;93866.75;;;-4.32;89.62
56330;BME280;42236;48.058;10.632;2022-12-11T08:20:32;93870.66;;;-4.24;90.00
56330;BME280;42236;48.058;10.632;2022-12-11T08:23:18;93864.84;;;-4.16;89.92
56330;BME280;42236;48.058;10.632;2022-12-11T08:26:06;93864.84;;;-4.11;89.79
56330;BME280;42236;48.058;10.632;2022-12-11T08:28:52;93867.19;;;-4.04;89.76
56330;BME280;42236;48.058;10.632;2022-12-11T08:31:39;93866.66;;;-3.96;89.88
56330;BME280;42236;48.058;10.632;2022-12-11T08:34:25;93874.00;;;-3.88;89.66
56330;BME280;42236;48.058;10.632;2022-12-11T08:37:10;93878.19;;;-3.81;89.30
56330;BME280;42236;48.058;10.632;2022-12-11T08:39:56;93875.00;;;-3.73;89.35
56330;BME280;42236;48.058;10.632;2022-12-11T08:42:42;93883.16;;;-3.65;88.96
56330;BME280;42236;48.058;10.632;2022-12-11T08:45:28;93883.94;;;-3.64;88.25
56330;BME280;42236;48.058;10.632;2022-12-11T08:48:13;93874.94;;;-3.63;88.34
56330;BME280;42236;48.058;10.632;2022-12-11T08:51:04;93877.06;;;-3.65;88.32
56330;BME280;42236;48.058;10.632;2022-12-11T08:53:56;93877.88;;;-3.70;86.93
56330;BME280;42236;48.058;10.632;2022-12-11T08:56:42;93880.25;;;-3.68;87.81
56330;BME280;42236;48.058;10.632;2022-12-11T08:59:28;93886.59;;;-3.69;87.87
56330;BME280;42236;48.058;10.632;2022-12-11T09:02:13;93884.47;;;-3.72;87.40
56330;BME280;42236;48.058;10.632;2022-12-11T09:04:59;93874.44;;;-3.70;87.95
56330;BME280;42236;48.058;10.632;2022-12-11T09:07:45;93875.50;;;-3.66;88.02
56330;BME280;42236;48.058;10.632;2022-12-11T09:10:31;93876.50;;;-3.57;88.57
56330;BME280;42236;48.058;10.632;2022-12-11T09:13:16;93884.88;;;-3.45;88.30
56330;BME280;42236;48.058;10.632;2022-12-11T09:16:04;93874.84;;;-3.37;88.20
56330;BME280;42236;48.058;10.632;2022-12-11T09:18:51;93881.66;;;-3.31;87.95
56330;BME280;42236;48.058;10.632;2022-12-11T09:21:37;93879.22;;;-3.23;87.86
56330;BME280;42236;48.058;10.632;2022-12-11T09:24:22;93882.09;;;-3.14;87.54
56330;BME280;42236;48.058;10.632;2022-12-11T09:27:08;93874.38;;;-3.05;87.62
56330;BME280;42236;48.058;10.632;2022-12-11T09:29:54;93881.25;;;-3.04;87.22
56330;BME280;42236;48.058;10.632;2022-12-11T09:32:40;93884.38;;;-3.02;87.37
56330;BME280;42236;48.058;10.632;2022-12-11T09:35:25;93876.19;;;-3.01;87.32
56330;BME280;42236;48.058;10.632;2022-12-11T09:38:12;93877.00;;;-3.05;86.91
56330;BME280;42236;48.058;10.632;2022-12-11T09:40:58;93877.88;;;-3.15;87.77
56330;BME280;42236;48.058;10.632;2022-12-11T09:43:50;93875.00;;;-3.18;87.57
56330;BME280;42236;48.058;10.632;2022-12-11T09:46:38;93873.41;;;-3.19;88.00
56330;BME280;42236;48.058;10.632;2022-12-11T09:55:17;93875.53;;;-3.16;86.20
56330;BME280;42236;48.058;10.632;2022-12-11T10:07:18;93863.91;;;-3.15;86.89
56330;BME280;42236;48.058;10.632;2022-12-11T10:16:19;93858.16;;;-2.88;86.10
56330;BME280;42236;48.058;10.632;2022-12-11T10:19:15;93864.88;;;-2.67;85.85
56330;BME280;42236;48.058;10.632;2022-12-11T10:22:02;93859.19;;;-2.50;86.42
56330;BME280;42236;48.058;10.632;2022-12-11T10:24:54;93858.31;;;-2.40;85.31
56330;BME280;42236;48.058;10.632;2022-12-11T10:27:41;93855.66;;;-2.40;86.08
56330;BME280;42236;48.058;10.632;2022-12-11T10:30:35;93845.94;;;-2.45;85.77
56330;BME280;42236;48.058;10.632;2022-12-11T10:33:46;93838.66;;;-2.58;83.69
56330;BME280;42236;48.058;10.632;2022-12-11T10:36:36;93845.34;;;-2.71;85.13
56330;BME280;42236;48.058;10.632;2022-12-11T10:39:23;93842.25;;;-2.78;84.83
56330;BME280;42236;48.058;10.632;2022-12-11T10:42:16;93831.72;;;-2.83;85.43
56330;BME280;42236;48.058;10.632;2022-12-11T10:45:04;93821.53;;;-2.95;85.84
56330;BME280;42236;48.058;10.632;2022-12-11T10:48:01;93816.34;;;-3.05;86.01
56330;BME280;42236;48.058;10.632;2022-12-11T10:51:02;93825.41;;;-3.16;86.06
56330;BME280;42236;48.058;10.632;2022-12-11T10:53:52;93827.28;;;-3.22;86.75
56330;BME280;42236;48.058;10.632;2022-12-11T10:56:40;93823.59;;;-3.21;85.96
56330;BME280;42236;48.058;10.632;2022-12-11T10:59:43;93816.72;;;-3.22;85.38
56330;BME280;42236;48.058;10.632;2022-12-11T11:02:33;93820.66;;;-3.19;86.10
56330;BME280;42236;48.058;10.632;2022-12-11T11:08:20;93806.66;;;-3.15;85.17
56330;BME280;42236;48.058;10.632;2022-12-11T11:14:17;93794.75;;;-3.12;85.95
56330;BME280;42236;48.058;10.632;2022-12-11T11:17:03;93793.41;;;-3.10;85.96
56330;BME280;42236;48.058;10.632;2022-12-11T11:19:51;93793.72;;;-3.11;85.82
56330;BME280;42236;48.058;10.632;2022-12-11T11:22:40;93787.13;;;-3.14;85.51
56330;BME280;42236;48.058;10.632;2022-12-11T11:25:30;93780.75;;;-3.08;85.72
56330;BME280;42236;48.058;10.632;2022-12-11T11:28:21;93782.88;;;-3.10;85.44
56330;BME280;42236;48.058;10.632;2022-12-11T11:31:13;93781.88;;;-3.14;84.99
56330;BME280;42236;48.058;10.632;2022-12-11T11:34:02;93778.47;;;-3.19;85.04
56330;BME280;42236;48.058;10.632;2022-12-11T11:36:57;93781.59;;;-3.17;85.76
56330;BME280;42236;48.058;10.632;2022-12-11T11:39:45;93781.31;;;-3.11;85.50
56330;BME280;42236;48.058;10.632;2022-12-11T11:46:05;93779.13;;;-3.04;85.24
56330;BME280;42236;48.058;10.632;2022-12-11T11:49:02;93773.34;;;-3.06;85.43
56330;BME280;42236;48.058;10.632;2022-12-11T11:52:03;93771.28;;;-3.09;85.13
56330;BME280;42236;48.058;10.632;2022-12-11T11:58:06;93759.13;;;-3.10;85.36
56330;BME280;42236;48.058;10.632;2022-12-11T12:00:55;93760.34;;;-2.97;85.07
56330;BME280;42236;48.058;10.632;2022-12-11T12:03:40;93747.59;;;-2.85;84.48
56330;BME280;42236;48.058;10.632;2022-12-11T12:15:58;93745.38;;;-2.48;83.07
56330;BME280;42236;48.058;10.632;2022-12-11T12:31:27;93736.09;;;-2.70;81.56
56330;BME280;42236;48.058;10.632;2022-12-11T12:38:05;93736.59;;;-2.68;80.34
56330;BME280;42236;48.058;10.632;2022-12-11T12:46:59;93745.25;;;-2.62;80.94
56330;BME280;42236;48.058;10.632;2022-12-11T12:49:51;93745.97;;;-2.57;79.88
56330;BME280;42236;48.058;10.632;2022-12-11T12:52:40;93740.41;;;-2.55;80.43
56330;BME280;42236;48.058;10.632;2022-12-11T12:55:27;93744.91;;;-2.55;80.48
56330;BME280;42236;48.058;10.632;2022-12-11T13:01:24;93732.22;;;-2.53;80.22
56330;BME280;42236;48.058;10.632;2022-12-11T13:04:27;93739.19;;;-2.63;79.05
56330;BME280;42236;48.058;10.632;2022-12-11T13:07:21;93735.53;;;-2.67;80.40
56330;BME280;42236;48.058;10.632;2022-12-11T13:13:37;93737.31;;;-2.62;79.27
56330;BME280;42236;48.058;10.632;2022-12-11T13:16:26;93745.19;;;-2.57;80.24
56330;BME280;42236;48.058;10.632;2022-12-11T13:25:01;93745.03;;;-2.66;80.05
56330;BME280;42236;48.058;10.632;2022-12-11T13:27:48;93746.59;;;-2.65;81.05
56330;BME280;42236;48.058;10.632;2022-12-11T13:30:34;93748.50;;;-2.70;81.44
56330;BME280;42236;48.058;10.632;2022-12-11T13:33:20;93742.97;;;-2.74;81.03
56330;BME280;42236;48.058;10.632;2022-12-11T13:39:00;93739.38;;;-2.83;80.55
56330;BME280;42236;48.058;10.632;2022-12-11T13:41:50;93733.88;;;-2.87;81.01
56330;BME280;42236;48.058;10.632;2022-12-11T13:44:41;93739.94;;;-2.86;80.74
56330;BME280;42236;48.058;10.632;2022-12-11T13:47:27;93737.25;;;-2.81;81.02
56330;BME280;42236;48.058;10.632;2022-12-11T13:50:19;93738.84;;;-2.80;81.08
56330;BME280;42236;48.058;10.632;2022-12-11T13:53:13;93744.91;;;-2.80;80.71
56330;BME280;42236;48.058;10.632;2022-12-11T13:56:05;93747.22;;;-2.78;81.10
56330;BME280;42236;48.058;10.632;2022-12-11T13:58:51;93744.13;;;-2.80;81.30
56330;BME280;42236;48.058;10.632;2022-12-11T14:01:36;93749.16;;;-2.84;81.12
56330;BME280;42236;48.058;10.632;2022-12-11T14:04:24;93738.84;;;-2.80;80.70
56330;BME280;42236;48.058;10.632;2022-12-11T14:07:17;93740.41;;;-2.79;80.29
56330;BME280;42236;48.058;10.632;2022-12-11T14:10:08;93743.09;;;-2.84;80.68
56330;BME280;42236;48.058;10.632;2022-12-11T14:13:01;93739.94;;;-2.86;80.38
56330;BME280;42236;48.058;10.632;2022-12-11T14:15:48;93745.53;;;-2.93;81.22
56330;BME280;42236;48.058;10.632;2022-12-11T14:18:35;93742.88;;;-2.93;80.20
56330;BME280;42236;48.058;10.632;2022-12-11T14:21:23;93738.38;;;-2.87;80.80
56330;BME280;42236;48.058;10.632;2022-12-11T14:24:11;93737.81;;;-2.84;80.51
56330;BME280;42236;48.058;10.632;2022-12-11T14:26:57;93742.06;;;-2.88;80.59
56330;BME280;42236;48.058;10.632;2022-12-11T14:29:44;93742.63;;;-2.91;80.93
56330;BME280;42236;48.058;10.632;2022-12-11T14:32:34;93732.16;;;-3.02;80.25
56330;BME280;42236;48.058;10.632;2022-12-11T14:35:33;93738.53;;;-3.08;80.06
56330;BME280;42236;48.058;10.632;2022-12-11T14:38:25;93739.06;;;-3.06;80.51
56330;BME280;42236;48.058;10.632;2022-12-11T14:44:15;93743.78;;;-3.03;80.56
56330;BME280;42236;48.058;10.632;2022-12-11T14:47:04;93742.72;;;-3.02;80.51
56330;BME280;42236;48.058;10.632;2022-12-11T14:50:02;93748.78;;;-3.01;80.75
56330;BME280;42236;48.058;10.632;2022-12-11T14:52:54;93744.38;;;-3.11;80.25
56330;BME280;42236;48.058;10.632;2022-12-11T14:55:41;93748.72;;;-3.25;80.33
56330;BME280;42236;48.058;10.632;2022-12-11T14:58:27;93750.34;;;-3.34;80.57
56330;BME280;42236;48.058;10.632;2022-12-11T15:06:59;93751.09;;;-3.68;80.88
56330;BME280;42236;48.058;10.632;2022-12-11T15:09:45;93760.34;;;-3.71;80.92
56330;BME280;42236;48.058;10.632;2022-12-11T15:12:30;93763.28;;;-3.77;80.82
56330;BME280;42236;48.058;10.632;2022-12-11T15:15:17;93771.22;;;-3.82;82.39
56330;BME280;42236;48.058;10.632;2022-12-11T15:18:05;93777.25;;;-3.82;82.34
56330;BME280;42236;48.058;10.632;2022-12-11T15:21:03;93768.59;;;-3.88;82.42
56330;BME280;42236;48.058;10.632;2022-12-11T15:23:53;93772.84;;;-3.87;82.77
56330;BME280;42236;48.058;10.632;2022-12-11T15:26:45;93771.25;;;-3.88;82.96
56330;BME280;42236;48.058;10.632;2022-12-11T15:29:36;93775.47;;;-3.87;82.93
56330;BME280;42236;48.058;10.632;2022-12-11T15:32:22;93769.38;;;-3.87;83.11
56330;BME280;42236;48.058;10.632;2022-12-11T15:35:25;93772.84;;;-3.87;83.28
56330;BME280;42236;48.058;10.632;2022-12-11T15:38:37;93782.53;;;-3.82;83.72
56330;BME280;42236;48.058;10.632;2022-12-11T15:41:25;93786.47;;;-3.79;83.88
56330;BME280;42236;48.058;10.632;2022-12-11T15:44:17;93784.13;;;-3.81;83.33
56330;BME280;42236;48.058;10.632;2022-12-11T15:47:14;93780.75;;;-3.87;83.93
56330;BME280;42236;48.058;10.632;2022-12-11T15:52:59;93789.69;;;-3.88;84.25
56330;BME280;42236;48.058;10.632;2022-12-11T15:55:44;93788.13;;;-3.89;84.69
56330;BME280;42236;48.058;10.632;2022-12-11T15:58:31;93789.69;;;-3.88;84.93
56330;BME280;42236;48.058;10.632;2022-12-11T16:01:17;93788.63;;;-3.87;85.09
56330;BME280;42236;48.058;10.632;2022-12-11T16:04:02;93784.16;;;-3.86;85.19
56330;BME280;42236;48.058;10.632;2022-12-11T16:06:50;93784.69;;;-3.84;85.18
56330;BME280;42236;48.058;10.632;2022-12-11T16:09:35;93781.75;;;-3.82;85.69
56330;BME280;42236;48.058;10.632;2022-12-11T16:12:21;93785.69;;;-3.80;85.60
56330;BME280;42236;48.058;10.632;2022-12-11T16:15:07;93786.72;;;-3.76;85.58
56330;BME280;42236;48.058;10.632;2022-12-11T16:18:01;93793.31;;;-3.73;85.33
56330;BME280;42236;48.058;10.632;2022-12-11T16:20:48;93797.50;;;-3.72;85.62
56330;BME280;42236;48.058;10.632;2022-12-11T16:23:34;93791.75;;;-3.74;85.52
56330;BME280;42236;48.058;10.632;2022-12-11T16:26:20;93790.66;;;-3.73;85.32